KRCV

Astronaut Kent Rominger Airport

Del Norte, Colorado, USA
METAR KRCV 231155Z AUTO 27005KT 10SM CLR 03/02 A3035 RMK AO2 LTG DSNT S T00260017 10055 20024
Observed Flight Rules
Oct-23 @ 11:55 UTC (22 minutes ago) Visual Flight Rules
Wind Visibility Clouds
270° at 5 knots 10 miles
  • Clear skies
Temperatures Readings
Current 3°C / 37°F
Dewpoint 2°C / 36°F
Humidity 93%
Altimeter 30.35" Hg
Pressure 1028 hPa
Elevation 2424
METAR KRCV 231155Z AUTO 27005KT 10SM CLR 03/02 A3035 RMK AO2 LTG DSNT S T00260017 10055 20024
Observed Flight Rules
Oct-23 @ 11:55 UTC
(22 minutes ago)
VFR
Wind Visibility
270° at 5 knots 10 miles
Clouds
  • Clear skies
Temperature Dewpoint
3°C / 37°F 2°C / 36°F
Humidity Altimeter Pressure
93% 30.35" Hg 1028 hPa